Time;durP1;ratioP1;P1;durP2;ratioP2;P2;SDS_P1;SDS_P2;PMS_P1;PMS_P2;Temp;Humidity;BMP_temperature;BMP_pressure;BME280_temperature;BME280_humidity;BME280_pressure;Samples;Min_cycle;Max_cycle;Signal;HPM_P1;HPM_P2
2022/08/27 00:02:16;;;;;;;4.07;1.88;;;;;;;23.68;45.90;101876.75;4903421;29;20143;-78
2022/08/27 00:04:42;;;;;;;4.30;1.58;;;;;;;23.66;45.77;101875.91;4899983;29;20100;-78
2022/08/27 00:07:10;;;;;;;3.42;1.88;;;;;;;23.68;46.05;101881.16;4916052;29;20148;-78
2022/08/27 00:09:35;;;;;;;3.30;1.70;;;;;;;23.72;45.76;101870.56;4901156;29;20048;-78
2022/08/27 00:12:02;;;;;;;4.00;1.75;;;;;;;23.65;45.78;101879.47;4915705;29;20157;-78
2022/08/27 00:14:28;;;;;;;4.47;1.77;;;;;;;23.66;45.86;101875.91;4885884;29;20056;-78
2022/08/27 00:16:54;;;;;;;4.82;1.70;;;;;;;23.57;46.48;101878.72;4895285;29;20067;-78
2022/08/27 00:19:20;;;;;;;3.47;1.60;;;;;;;23.65;46.06;101876.84;4923095;29;20059;-78
2022/08/27 00:21:46;;;;;;;3.25;1.63;;;;;;;23.69;45.93;101870.63;4885310;29;20052;-78
2022/08/27 00:24:11;;;;;;;4.05;1.83;;;;;;;23.72;45.67;101865.28;4902494;29;20442;-78
2022/08/27 00:29:03;;;;;;;4.78;1.60;;;;;;;23.72;46.02;101867.06;4920062;29;20508;-78
2022/08/27 00:31:28;;;;;;;3.95;1.67;;;;;;;23.61;46.42;101865.50;4904535;29;20048;-78
2022/08/27 00:33:54;;;;;;;3.42;1.67;;;;;;;23.59;46.15;101862.03;4903298;29;20487;-78
2022/08/27 00:36:20;;;;;;;2.88;1.50;;;;;;;23.60;46.47;101860.25;4906160;29;20080;-78
2022/08/27 00:38:45;;;;;;;3.22;1.60;;;;;;;23.56;46.68;101856.84;4890181;29;20055;-78
2022/08/27 00:41:12;;;;;;;2.50;1.40;;;;;;;23.64;46.37;101861.94;4886069;29;20052;-79
2022/08/27 00:43:58;;;;;;;2.80;1.60;;;;;;;23.60;46.29;101860.25;4914375;29;20059;-78
2022/08/27 00:46:37;;;;;;;3.00;1.67;;;;;;;23.67;45.97;101858.38;4910114;29;20044;-78
2022/08/27 00:49:17;;;;;;;4.75;1.88;;;;;;;23.59;46.11;101867.28;4926940;29;20159;-78
2022/08/27 00:51:46;;;;;;;3.38;1.60;;;;;;;23.53;46.51;101859.50;4899407;29;20135;-78
2022/08/27 00:54:12;;;;;;;4.40;1.75;;;;;;;23.54;46.75;101865.63;4926707;29;20081;-78
2022/08/27 00:59:03;;;;;;;3.00;1.42;;;;;;;23.59;46.54;101864.66;4917324;29;20044;-78
2022/08/27 01:01:31;;;;;;;3.85;1.60;;;;;;;23.62;46.46;101866.34;4917321;29;20514;-78
2022/08/27 01:04:01;;;;;;;4.00;1.52;;;;;;;23.56;46.53;101877.88;4899593;29;20499;-78
2022/08/27 01:06:31;;;;;;;3.97;1.67;;;;;;;23.62;46.30;101867.22;4901053;29;20068;-78
2022/08/27 01:09:03;;;;;;;3.60;1.70;;;;;;;23.62;46.45;101867.22;4899294;29;20054;-78
2022/08/27 01:11:30;;;;;;;3.20;1.37;;;;;;;23.55;46.29;101873.50;4900148;29;20468;-78
2022/08/27 01:13:56;;;;;;;3.55;1.45;;;;;;;23.66;46.53;101868.03;4896353;29;20111;-78
2022/08/27 01:16:25;;;;;;;4.40;1.77;;;;;;;23.66;46.19;101877.69;4875279;29;20056;-78
2022/08/27 01:18:53;;;;;;;2.33;1.42;;;;;;;23.63;46.48;101873.38;4896142;29;20111;-78
2022/08/27 01:21:31;;;;;;;4.68;1.58;;;;;;;23.67;46.06;101866.25;4883077;29;20052;-78
2022/08/27 01:27:06;;;;;;;3.17;1.30;;;;;;;23.65;46.07;101868.94;4898342;29;21166;-78
2022/08/27 01:29:32;;;;;;;2.63;1.40;;;;;;;23.60;46.45;101871.66;4903862;29;20052;-77
2022/08/27 01:32:11;;;;;;;4.65;1.63;;;;;;;23.65;46.27;101868.94;4906335;29;20072;-78
2022/08/27 01:37:04;;;;;;;5.30;1.60;;;;;;;23.67;46.44;101861.91;4908353;29;20115;-78
2022/08/27 01:39:30;;;;;;;3.65;1.25;;;;;;;23.68;46.35;101865.38;4890036;29;20045;-77
2022/08/27 01:42:06;;;;;;;3.22;1.50;;;;;;;23.68;46.22;101868.00;4870379;29;20060;-77
2022/08/27 01:47:02;;;;;;;2.90;1.30;;;;;;;23.64;46.14;101859.31;4922715;29;20515;-78
2022/08/27 01:49:28;;;;;;;6.75;1.60;;;;;;;23.55;46.54;101857.72;4892832;29;20096;-79
2022/08/27 01:51:55;;;;;;;4.60;1.60;;;;;;;23.74;46.27;101857.38;4904108;29;20360;-78
2022/08/27 01:54:20;;;;;;;6.22;1.65;;;;;;;23.74;45.70;101865.28;4886761;29;20052;-78
2022/08/27 01:56:46;;;;;;;4.50;1.45;;;;;;;23.74;45.96;101862.66;4906781;29;20062;-77
2022/08/27 01:59:11;;;;;;;3.20;1.38;;;;;;;23.70;46.31;101867.09;4924697;29;20060;-77
2022/08/27 02:01:37;;;;;;;2.58;1.40;;;;;;;23.71;45.69;101858.28;4878704;29;20048;-77
2022/08/27 02:04:02;;;;;;;4.35;1.42;;;;;;;23.73;46.01;101856.50;4864570;29;20064;-77
2022/08/27 02:06:28;;;;;;;3.85;1.63;;;;;;;23.74;46.02;101853.00;4881598;29;20120;-77
2022/08/27 02:08:53;;;;;;;3.35;1.73;;;;;;;23.74;45.64;101852.13;4862279;29;20053;-77
2022/08/27 02:11:18;;;;;;;3.65;1.45;;;;;;;23.75;45.91;101859.09;4865760;29;20067;-77
2022/08/27 02:13:44;;;;;;;3.60;1.42;;;;;;;23.72;45.60;101853.94;4895900;29;20055;-77
2022/08/27 02:16:09;;;;;;;3.28;1.50;;;;;;;23.73;45.83;101859.13;4890177;29;20059;-77
2022/08/27 02:18:37;;;;;;;3.72;1.45;;;;;;;23.75;46.03;101852.13;4855583;29;20462;-77
2022/08/27 02:21:02;;;;;;;4.35;1.50;;;;;;;23.73;45.68;101855.63;4904617;29;21282;-77
2022/08/27 02:23:28;;;;;;;4.28;1.33;;;;;;;23.76;45.73;101848.59;4882188;29;20104;-78
2022/08/27 02:25:53;;;;;;;3.63;1.60;;;;;;;23.79;45.78;101851.16;4881229;29;20048;-77
2022/08/27 02:28:19;;;;;;;3.40;1.40;;;;;;;23.78;45.72;101856.47;4867258;29;20048;-78
2022/08/27 02:30:44;;;;;;;3.05;1.42;;;;;;;23.76;45.89;101855.63;4904512;29;20143;-78
2022/08/27 02:33:09;;;;;;;2.28;1.35;;;;;;;23.77;45.83;101852.97;4866861;29;20056;-78
2022/08/27 02:35:39;;;;;;;3.70;1.60;;;;;;;23.75;46.02;101851.22;4905536;29;20080;-78
2022/08/27 02:38:02;;;;;;;3.58;1.50;;;;;;;23.76;46.05;101845.97;4920599;29;20933;-78
2022/08/27 02:40:28;;;;;;;2.80;1.40;;;;;;;23.73;45.88;101843.34;4882479;29;20111;-78
2022/08/27 02:42:53;;;;;;;3.15;1.20;;;;;;;23.74;45.75;101847.75;4880934;29;20044;-79
2022/08/27 02:45:20;;;;;;;3.88;1.45;;;;;;;23.74;45.86;101845.09;4881613;29;20048;-78
2022/08/27 02:47:47;;;;;;;2.95;1.23;;;;;;;23.74;46.06;101833.75;4903630;29;20439;-79
2022/08/27 02:50:13;;;;;;;3.47;1.30;;;;;;;23.76;45.67;101835.47;4905887;29;20052;-79
2022/08/27 02:52:39;;;;;;;2.58;1.40;;;;;;;23.76;46.14;101842.50;4904754;29;20490;-79
2022/08/27 02:55:05;;;;;;;3.95;1.60;;;;;;;23.74;45.92;101841.63;4896460;29;20107;-78
2022/08/27 02:57:31;;;;;;;3.50;1.40;;;;;;;23.74;45.79;101839.00;4921802;29;20491;-78
2022/08/27 02:59:56;;;;;;;2.03;1.27;;;;;;;23.71;45.72;101834.63;4898838;29;20044;-78
2022/08/27 03:02:22;;;;;;;3.72;1.63;;;;;;;23.72;46.00;101835.53;4877407;29;20052;-78
2022/08/27 03:04:48;;;;;;;2.90;1.40;;;;;;;23.75;45.95;101833.72;4898092;29;20063;-78
2022/08/27 03:07:13;;;;;;;3.70;1.40;;;;;;;23.74;45.68;101833.75;4836558;29;1180918;-78
2022/08/27 03:09:39;;;;;;;3.67;1.50;;;;;;;23.72;45.58;101831.13;4876585;29;20138;-79
2022/08/27 03:12:05;;;;;;;3.35;1.60;;;;;;;23.73;45.99;101826.72;4898808;29;20056;-77
2022/08/27 03:14:31;;;;;;;4.00;1.33;;;;;;;23.73;45.86;101829.38;4907560;29;20071;-78
2022/08/27 03:18:16;;;;;;;3.10;1.45;;;;;;;23.74;45.89;101826.72;4906549;29;20076;-78
2022/08/27 03:19:42;;;;;;;2.70;1.50;;;;;;;23.73;45.86;101830.22;4887987;29;20036;-78
2022/08/27 03:22:08;;;;;;;3.38;1.60;;;;;;;23.75;45.67;101830.19;4880664;29;20080;-78
2022/08/27 03:24:34;;;;;;;2.95;1.40;;;;;;;23.75;45.59;101827.56;4888583;29;20052;-78
2022/08/27 03:26:59;;;;;;;2.75;1.40;;;;;;;23.74;45.99;101820.59;4883591;29;20055;-78
2022/08/27 03:29:27;;;;;;;2.80;1.33;;;;;;;23.75;45.81;101824.94;4868713;29;20056;-78
2022/08/27 03:31:52;;;;;;;4.55;1.73;;;;;;;23.74;45.78;101821.47;4866753;29;20161;-79
2022/08/27 03:34:18;;;;;;;3.85;1.33;;;;;;;23.74;45.67;101824.09;4905918;29;20060;-78
2022/08/27 03:36:43;;;;;;;5.25;1.33;;;;;;;23.72;45.84;101828.50;4872519;29;20056;-78
2022/08/27 03:39:11;;;;;;;2.50;1.48;;;;;;;23.72;45.61;101825.03;4872994;29;20147;-78
2022/08/27 03:41:37;;;;;;;3.53;1.50;;;;;;;23.72;45.80;101828.50;4859196;29;20052;-78
2022/08/27 03:44:02;;;;;;;3.67;1.38;;;;;;;23.73;45.90;101824.09;4883107;29;20057;-79
2022/08/27 03:46:29;;;;;;;3.33;1.60;;;;;;;23.72;45.98;101831.13;4887810;29;20057;-79
2022/08/27 03:48:55;;;;;;;7.70;1.80;;;;;;;23.73;46.02;101824.97;4865529;29;20053;-78
2022/08/27 03:51:20;;;;;;;5.30;1.30;;;;;;;23.72;45.60;101820.63;4886239;29;20045;-79
2022/08/27 03:53:46;;;;;;;4.55;1.45;;;;;;;23.73;45.95;101818.84;4888162;29;20128;-79
2022/08/27 03:56:11;;;;;;;6.43;1.55;;;;;;;23.73;45.65;101824.09;4906963;29;20057;-78
2022/08/27 04:01:04;;;;;;;4.50;1.67;;;;;;;23.73;45.80;101822.34;4898595;29;20578;-78
2022/08/27 04:03:30;;;;;;;2.35;1.30;;;;;;;23.73;46.07;101824.97;4892616;29;20139;-78
2022/08/27 04:05:56;;;;;;;3.20;1.50;;;;;;;23.72;45.53;101822.38;4903067;29;20120;-78
2022/08/27 04:08:23;;;;;;;1.75;1.20;;;;;;;23.73;45.94;101827.59;4895968;29;20052;-78
2022/08/27 04:10:49;;;;;;;4.10;1.50;;;;;;;23.74;45.75;101823.22;4917985;29;20397;-78
2022/08/27 04:13:16;;;;;;;2.60;1.40;;;;;;;23.74;45.81;101824.09;4903620;29;20044;-78
2022/08/27 04:15:47;;;;;;;3.28;1.60;;;;;;;23.72;46.09;101818.00;4917917;29;20052;-77
2022/08/27 04:18:16;;;;;;;3.30;1.50;;;;;;;23.73;45.66;101821.47;4914430;29;20052;-77
2022/08/27 04:20:46;;;;;;;3.47;1.48;;;;;;;23.72;45.47;101823.25;4897594;29;20044;-78
2022/08/27 04:23:12;;;;;;;3.20;1.40;;;;;;;23.72;45.91;101817.13;4883337;29;20058;-78
2022/08/27 04:25:39;;;;;;;3.17;1.50;;;;;;;23.70;45.49;101825.03;4883489;29;20049;-79
2022/08/27 04:28:05;;;;;;;3.20;1.50;;;;;;;23.70;45.42;101822.41;4893754;29;20056;-78
2022/08/27 04:30:31;;;;;;;2.88;1.65;;;;;;;23.71;45.58;101818.00;4906956;29;20049;-78
2022/08/27 04:32:57;;;;;;;4.47;1.80;;;;;;;23.72;45.56;101817.13;4887089;29;20053;-78
2022/08/27 04:35:22;;;;;;;5.03;1.52;;;;;;;23.72;45.80;101817.13;4904860;29;20057;-78
2022/08/27 04:37:48;;;;;;;4.82;1.77;;;;;;;23.71;45.39;101820.63;4856034;29;20056;-78
2022/08/27 04:40:13;;;;;;;3.50;1.63;;;;;;;23.71;45.55;101824.13;4890368;29;20053;-77
2022/08/27 04:42:39;;;;;;;3.92;1.80;;;;;;;23.69;45.68;101831.22;4873030;29;20052;-80
2022/08/27 04:45:04;;;;;;;3.35;1.73;;;;;;;23.70;45.55;101832.91;4869122;29;20052;-78
2022/08/27 04:47:30;;;;;;;5.15;1.83;;;;;;;23.71;45.74;101832.00;4870878;29;20060;-78
2022/08/27 04:49:55;;;;;;;3.72;1.77;;;;;;;23.71;45.79;101839.91;4872960;29;20059;-77
2022/08/27 04:52:21;;;;;;;3.42;1.70;;;;;;;23.70;45.44;101843.44;4866678;29;20052;-77
2022/08/27 04:54:46;;;;;;;2.88;1.70;;;;;;;23.69;45.76;101836.47;4873398;29;20381;-78
2022/08/27 04:57:12;;;;;;;3.33;1.90;;;;;;;23.70;45.78;101842.56;4874676;29;20101;-77
2022/08/27 05:02:05;;;;;;;5.53;1.93;;;;;;;23.69;45.70;101843.44;4898841;29;20056;-77
2022/08/27 05:04:31;;;;;;;4.53;1.83;;;;;;;23.72;46.05;101853.94;4884413;29;20309;-77
2022/08/27 05:06:56;;;;;;;4.05;1.67;;;;;;;23.70;45.67;101851.31;4891608;29;20479;-77
2022/08/27 05:09:22;;;;;;;3.50;1.75;;;;;;;23.68;46.05;101852.25;4880015;29;20064;-77
2022/08/27 05:11:47;;;;;;;3.85;1.67;;;;;;;23.67;45.99;101848.75;4900311;29;20063;-78
2022/08/27 05:14:14;;;;;;;3.17;1.80;;;;;;;23.67;45.62;101854.00;4877790;29;20064;-77
2022/08/27 05:16:41;;;;;;;4.35;1.77;;;;;;;23.69;45.72;101848.72;4901639;29;20056;-78
2022/08/27 05:19:11;;;;;;;3.20;1.70;;;;;;;23.71;46.15;101849.56;4896720;29;20048;-77
2022/08/27 05:24:05;;;;;;;4.40;1.80;;;;;;;23.70;45.81;101853.94;4924294;29;20064;-78
2022/08/27 05:26:32;;;;;;;3.72;1.60;;;;;;;23.71;45.69;101846.91;4885518;29;20059;-78
2022/08/27 05:28:58;;;;;;;5.55;1.70;;;;;;;23.69;46.06;101854.84;4879025;29;20155;-79
2022/08/27 05:31:24;;;;;;;4.70;1.80;;;;;;;23.70;45.79;101845.19;4882199;29;20091;-78
2022/08/27 05:33:49;;;;;;;4.55;2.10;;;;;;;23.71;45.60;101855.66;4873415;29;20053;-79
2022/08/27 05:36:21;;;;;;;4.13;1.73;;;;;;;23.70;46.16;101859.19;4883386;29;20400;-78
2022/08/27 05:38:50;;;;;;;2.30;1.65;;;;;;;23.72;45.94;101860.03;4879436;29;20064;-78
2022/08/27 05:41:24;;;;;;;4.90;1.90;;;;;;;23.71;46.12;101866.19;4892563;29;20076;-78
2022/08/27 05:43:50;;;;;;;3.63;2.00;;;;;;;23.73;46.40;101863.53;4902821;29;20060;-78
2022/08/27 05:46:17;;;;;;;3.97;2.28;;;;;;;23.74;45.88;101855.63;4907483;29;20062;-78
2022/08/27 05:48:43;;;;;;;2.83;1.75;;;;;;;23.89;45.51;101872.00;4927255;29;20048;-78
2022/08/27 05:51:14;;;;;;;4.32;1.90;;;;;;;23.99;45.12;101863.91;4911818;29;20058;-78
2022/08/27 05:53:40;;;;;;;3.35;1.90;;;;;;;24.06;44.92;101862.00;4911805;29;20052;-78
2022/08/27 05:56:18;;;;;;;4.03;1.80;;;;;;;24.14;45.24;101854.84;4886695;29;20090;-78
2022/08/27 06:01:29;;;;;;;4.43;1.65;;;;;;;24.29;45.00;101858.91;4906214;29;20111;-77
2022/08/27 06:03:55;;;;;;;4.90;1.73;;;;;;;24.38;44.65;101863.09;4900879;29;20055;-79
2022/08/27 06:06:21;;;;;;;4.20;1.70;;;;;;;24.42;44.66;101862.16;4883144;29;20057;-79
2022/08/27 06:08:49;;;;;;;4.93;1.70;;;;;;;24.49;44.27;101852.38;4911609;29;20134;-79
2022/08/27 06:11:17;;;;;;;5.68;2.00;;;;;;;24.54;44.14;101853.13;4910481;29;20048;-79
2022/08/27 06:13:42;;;;;;;3.63;1.75;;;;;;;24.59;43.69;101851.28;4909436;29;20056;-78
2022/08/27 06:16:12;;;;;;;11.73;1.75;;;;;;;24.69;43.59;101852.78;4901777;29;20051;-77
2022/08/27 06:31:26;;;;;;;4.25;2.10;;;;;;;24.69;43.55;101850.13;5734609;23;20118;-86
2022/08/27 06:48:43;;;;;;;6.18;1.83;;;;;;;24.36;42.66;101868.41;4571579;23;20243;31
2022/08/27 06:54:18;;;;;;;5.15;1.88;;;;;;;24.37;42.46;101869.28;4836020;29;20149;-81
2022/08/27 07:27:40;;;;;;;6.47;1.80;;;;;;;24.43;40.47;101874.38;5054513;23;20057;-78
2022/08/27 07:30:11;;;;;;;4.80;1.80;;;;;;;24.43;40.30;101882.28;4878481;29;20400;-78
2022/08/27 07:32:37;;;;;;;7.50;1.70;;;;;;;24.42;40.33;101876.16;4878599;29;20045;-79
2022/08/27 07:35:03;;;;;;;4.38;1.90;;;;;;;24.45;40.21;101880.47;4878427;29;20060;-77
2022/08/27 07:37:28;;;;;;;5.97;2.00;;;;;;;24.47;40.04;101881.31;4881374;29;20056;-77
2022/08/27 07:39:54;;;;;;;4.45;1.80;;;;;;;24.47;39.58;101877.81;4851594;29;20059;-77
2022/08/27 07:45:03;;;;;;;5.88;2.00;;;;;;;24.51;39.26;101883.00;4872587;29;20136;-78
2022/08/27 07:47:30;;;;;;;4.82;1.77;;;;;;;24.47;39.36;101890.97;4885583;29;20068;-79
2022/08/27 07:49:57;;;;;;;4.90;2.00;;;;;;;24.43;39.58;101891.06;4882405;29;20083;-78
2022/08/27 07:52:22;;;;;;;7.40;1.92;;;;;;;24.43;39.64;101892.81;4898728;29;20140;-77
2022/08/27 07:54:47;;;;;;;5.57;1.85;;;;;;;24.43;39.62;101896.31;4848885;29;20045;-77
2022/08/27 07:57:13;;;;;;;6.80;1.92;;;;;;;24.52;38.98;101897.03;4853809;29;20056;-78
2022/08/27 07:59:38;;;;;;;5.15;1.88;;;;;;;24.48;39.41;101895.34;4883207;29;20048;-78
2022/08/27 08:02:03;;;;;;;6.38;2.00;;;;;;;24.49;39.69;101900.59;4850746;29;20057;-77
2022/08/27 08:04:29;;;;;;;6.22;2.00;;;;;;;24.94;39.53;101895.19;4900146;29;20044;-79
2022/08/27 08:06:55;;;;;;;5.40;1.75;;;;;;;25.94;35.07;101891.81;4880358;29;20052;-82
2022/08/27 08:09:22;;;;;;;6.93;2.05;;;;;;;24.80;37.18;101903.44;4848899;29;20056;-82
2022/08/27 08:11:49;;;;;;;4.78;1.70;;;;;;;24.36;37.60;101907.00;4894027;29;20052;-80
2022/08/27 08:14:17;;;;;;;4.57;1.95;;;;;;;25.07;35.83;101905.44;4901632;29;20080;-85
2022/08/27 08:16:43;;;;;;;7.20;2.20;;;;;;;27.04;33.87;101903.44;4901432;29;20071;-87
2022/08/27 08:19:09;;;;;;;6.88;2.00;;;;;;;24.72;39.97;101917.66;4898753;29;20492;-87
2022/08/27 09:35:14;;;;;;;9.52;2.20;;;;;;;21.40;43.41;101948.78;5960093;23;20335;31
2022/08/27 09:37:50;;;;;;;6.10;1.70;;;;;;;21.36;44.15;101940.06;4864264;29;20415;-81
2022/08/27 09:40:32;;;;;;;7.80;2.03;;;;;;;21.06;44.92;101946.41;4882580;29;20507;-82
2022/08/27 09:43:45;;;;;;;;;;;;;;;;;;;;;
2022/08/27 09:49:40;;;;;;;5.53;1.45;;;;;;;21.02;44.99;101948.16;4916998;29;20058;-83
2022/08/27 09:52:06;;;;;;;10.00;1.90;;;;;;;20.98;45.26;101942.97;4884025;29;20057;-80
2022/08/27 09:54:39;;;;;;;5.47;1.88;;;;;;;21.00;44.15;101944.69;4904164;29;20057;-81
2022/08/27 09:57:07;;;;;;;5.63;1.73;;;;;;;21.14;43.02;101947.19;4898146;29;20144;-82
2022/08/27 10:02:18;;;;;;;4.38;1.58;;;;;;;21.20;44.05;101949.78;4918474;29;20056;-81
2022/08/27 10:05:01;;;;;;;5.22;1.75;;;;;;;21.75;43.66;101940.63;4903630;29;20487;-82
2022/08/27 10:07:32;;;;;;;6.63;1.60;;;;;;;21.17;45.19;101942.84;4919041;29;20391;-80
2022/08/27 10:10:16;;;;;;;6.95;1.85;;;;;;;21.19;45.23;101937.59;4900433;29;20308;-81
2022/08/27 10:12:53;;;;;;;4.90;1.50;;;;;;;20.79;44.94;101934.34;4920664;29;20052;-82
2022/08/27 10:15:20;;;;;;;5.60;1.73;;;;;;;21.41;43.86;101919.09;4903527;29;20063;-81
2022/08/27 10:17:52;;;;;;;4.80;1.52;;;;;;;21.83;43.08;101932.72;4904633;29;20057;-81
2022/08/27 10:20:35;;;;;;;5.70;1.80;;;;;;;21.52;44.26;101927.75;4922023;29;20056;-82
2022/08/27 10:23:21;;;;;;;5.47;1.80;;;;;;;21.30;44.82;101932.28;4904747;29;20139;-81
2022/08/27 10:26:18;;;;;;;6.60;1.58;;;;;;;21.16;45.11;101937.59;4920052;29;20051;-82
2022/08/27 10:31:30;;;;;;;5.13;1.52;;;;;;;21.32;42.61;101928.75;4918095;29;20040;-82
2022/08/27 10:34:15;;;;;;;6.20;1.60;;;;;;;21.41;43.12;101933.09;4899516;29;20052;-80
2022/08/27 10:36:50;;;;;;;9.93;1.95;;;;;;;21.85;43.07;101936.19;4899071;29;20059;-83
2022/08/27 10:39:37;;;;;;;9.70;2.40;;;;;;;21.19;46.25;101941.94;4899431;29;20118;-80
2022/08/27 10:42:08;;;;;;;7.75;1.90;;;;;;;20.47;49.23;101935.31;4913162;29;20063;-80
2022/08/27 10:47:30;;;;;;;4.65;1.48;;;;;;;20.73;45.94;101940.47;4915266;29;20076;-81
2022/08/27 10:50:26;;;;;;;5.60;1.60;;;;;;;20.96;47.63;101935.97;4906441;29;20044;-81
2022/08/27 10:53:09;;;;;;;6.57;2.00;;;;;;;21.02;44.99;101939.47;4929255;29;20055;-80
2022/08/27 10:58:20;;;;;;;4.82;2.00;;;;;;;20.58;46.23;101944.06;4926876;29;20056;-79
2022/08/27 11:01:01;;;;;;;5.93;2.10;;;;;;;20.69;45.69;101929.19;4913451;29;20194;-84
2022/08/27 11:06:27;;;;;;;9.35;1.70;;;;;;;21.00;45.08;101931.59;4926146;29;20067;-80
2022/08/27 11:09:01;;;;;;;9.07;3.08;;;;;;;20.98;45.40;101929.88;4911449;29;20055;-81
2022/08/27 11:11:35;;;;;;;7.50;1.80;;;;;;;20.89;45.68;101938.66;4913014;29;20116;-82
2022/08/27 11:14:09;;;;;;;7.90;2.05;;;;;;;20.87;45.77;101941.28;4915640;29;20063;-82
2022/08/27 11:19:18;;;;;;;10.15;1.80;;;;;;;20.45;48.54;101944.94;4932389;29;20286;-83
2022/08/27 11:22:01;;;;;;;5.80;1.90;;;;;;;20.72;48.55;101944.84;4930910;29;20032;-82
2022/08/27 11:24:31;;;;;;;9.50;1.95;;;;;;;20.37;50.57;101947.59;4913081;29;20082;-81
2022/08/27 11:27:01;;;;;;;6.05;1.83;;;;;;;20.22;48.56;101945.88;4908523;29;20525;-81
2022/08/27 11:29:31;;;;;;;7.38;1.83;;;;;;;20.56;51.30;101945.78;4907966;29;20403;-82
2022/08/27 11:32:14;;;;;;;8.65;2.20;;;;;;;20.35;49.53;101933.66;4906455;29;20116;-81
2022/08/27 11:34:55;;;;;;;8.75;2.20;;;;;;;20.74;51.50;101943.09;4909843;29;20048;-82
2022/08/27 13:45:18;;;;;;;3.97;1.30;;;;;;;22.73;52.18;101894.94;4750018;28;20057;-80
2022/08/27 13:59:48;;;;;;;3.67;1.30;;;;;;;22.75;52.37;101902.78;4997344;23;20024;31
2022/08/27 15:33:46;;;;;;;6.88;2.20;;;;;;;21.92;52.54;101954.44;5667658;23;20049;-82
2022/08/27 15:36:13;;;;;;;8.13;2.17;;;;;;;21.94;52.46;101947.44;4902258;29;20032;-81
2022/08/27 15:39:14;;;;;;;8.18;2.00;;;;;;;21.97;55.82;101951.75;4928646;29;20044;-82
2022/08/27 15:41:41;;;;;;;6.63;2.20;;;;;;;22.03;51.80;101949.09;4915883;29;20052;-80
2022/08/27 15:44:10;;;;;;;6.43;2.13;;;;;;;21.96;52.79;101952.66;4917020;29;20055;-81
2022/08/27 15:49:04;;;;;;;8.68;2.10;;;;;;;21.98;54.27;101956.13;4922097;29;20064;-80
2022/08/27 15:51:33;;;;;;;20.63;10.45;;;;;;;21.96;51.30;101948.28;4905352;29;20075;-80
2022/08/27 15:54:15;;;;;;;12.68;6.45;;;;;;;21.92;51.75;101945.72;4922266;29;21382;-83
2022/08/27 15:57:14;;;;;;;13.52;4.57;;;;;;;21.94;51.33;101954.44;4923004;29;20072;-82
2022/08/27 15:59:46;;;;;;;8.13;3.55;;;;;;;21.89;51.75;101967.59;4907182;29;20049;-79
2022/08/27 16:02:17;;;;;;;5.57;2.25;;;;;;;21.90;54.42;101950.97;4900240;29;20052;-80
2022/08/27 16:04:43;;;;;;;9.20;2.40;;;;;;;21.89;54.70;101951.00;4922863;29;20063;-78
2022/08/27 16:07:09;;;;;;;7.10;2.42;;;;;;;21.91;53.55;101957.97;4925252;29;20067;-80
2022/08/27 16:09:35;;;;;;;13.18;4.20;;;;;;;21.87;53.29;101960.63;4924735;29;20082;-78
2022/08/27 16:12:00;;;;;;;11.25;3.42;;;;;;;21.90;52.78;101955.34;4888245;29;20676;-80
2022/08/27 16:14:26;;;;;;;14.10;3.55;;;;;;;22.05;52.84;101957.81;4905550;29;20088;-79
2022/08/27 16:16:52;;;;;;;33.65;10.45;;;;;;;22.15;52.64;101950.72;4887277;29;20127;-80
2022/08/27 16:19:18;;;;;;;44.88;11.80;;;;;;;22.27;52.17;101954.97;4905782;29;20082;-80
2022/08/27 16:21:45;;;;;;;42.95;10.80;;;;;;;22.28;52.73;101954.13;4911955;29;20056;-80
2022/08/27 16:24:12;;;;;;;28.83;10.20;;;;;;;22.29;53.07;101955.84;4913007;29;20049;-79
2022/08/27 16:26:37;;;;;;;33.85;9.68;;;;;;;22.33;53.08;101968.88;4911291;29;20053;-81
2022/08/27 16:29:05;;;;;;;29.27;8.98;;;;;;;22.34;50.69;101959.25;4889888;29;20057;-80
2022/08/27 16:34:10;;;;;;;15.55;4.78;;;;;;;22.46;48.23;101955.63;4902807;29;20052;-80
2022/08/27 16:36:35;;;;;;;15.07;5.07;;;;;;;22.51;49.11;101954.69;4901535;29;20108;-81
2022/08/27 16:39:00;;;;;;;14.93;4.90;;;;;;;22.51;48.91;101946.81;4880240;29;20056;-80
2022/08/27 16:41:26;;;;;;;12.48;4.30;;;;;;;22.52;48.77;101955.56;4882069;29;20496;-80
2022/08/27 16:43:52;;;;;;;11.48;3.97;;;;;;;22.51;48.95;101952.06;4861720;29;20095;-80
2022/08/27 16:46:17;;;;;;;10.88;3.90;;;;;;;22.51;48.90;101952.06;4880865;29;20084;-80
2022/08/27 16:51:36;;;;;;;14.85;4.18;;;;;;;22.54;48.75;101951.19;4870645;29;20093;-80
2022/08/27 16:54:03;;;;;;;10.98;4.18;;;;;;;22.58;47.56;101956.34;4895274;29;20491;-80
2022/08/27 16:56:29;;;;;;;12.57;3.80;;;;;;;22.56;47.95;101952.03;4897231;29;20057;-80
2022/08/27 16:58:54;;;;;;;12.18;3.70;;;;;;;22.59;49.00;101957.22;4863886;29;20059;-80
2022/08/27 17:01:22;;;;;;;8.52;3.80;;;;;;;22.60;48.48;101961.56;4881045;29;20108;-80
2022/08/27 17:03:53;;;;;;;9.45;3.65;;;;;;;22.61;48.68;101951.97;4879234;29;20501;-81
2022/08/27 17:06:24;;;;;;;7.50;3.05;;;;;;;22.59;48.05;101954.59;4899686;29;20061;-81
2022/08/27 17:08:50;;;;;;;8.40;3.00;;;;;;;22.61;48.54;101954.59;4882570;29;20064;-81
2022/08/27 17:11:18;;;;;;;11.80;3.50;;;;;;;22.63;47.66;101950.19;4897700;29;20399;-81
2022/08/27 17:13:48;;;;;;;9.18;2.83;;;;;;;22.64;48.92;101947.53;4880574;29;20045;-81
2022/08/27 17:16:15;;;;;;;11.45;3.40;;;;;;;22.63;47.74;101953.66;4898613;29;20059;-81
2022/08/27 17:18:41;;;;;;;7.82;3.03;;;;;;;22.66;47.74;101950.13;4881448;29;20044;-80
2022/08/27 17:21:06;;;;;;;5.53;2.70;;;;;;;22.64;47.82;101951.91;4897244;29;20061;-81
2022/08/27 17:23:33;;;;;;;8.55;3.28;;;;;;;22.65;48.66;101959.78;4882740;29;20063;-80
2022/08/27 17:26:00;;;;;;;6.22;2.60;;;;;;;22.67;47.47;101957.09;4895687;29;20064;-80
2022/08/27 17:28:26;;;;;;;7.35;2.72;;;;;;;22.63;48.36;101955.44;4899894;29;20057;-80
2022/08/27 17:30:52;;;;;;;8.00;2.70;;;;;;;22.62;47.46;101962.41;4895212;29;20052;-80
2022/08/27 17:36:13;;;;;;;7.72;2.92;;;;;;;22.63;48.22;101964.16;4903584;29;20067;-80
2022/08/27 17:38:42;;;;;;;6.05;2.75;;;;;;;22.64;48.61;101960.63;4792936;29;2768131;-81
2022/08/27 17:41:15;;;;;;;8.57;3.03;;;;;;;22.62;48.61;101962.41;4881965;29;20045;-81
2022/08/27 17:43:43;;;;;;;7.25;2.88;;;;;;;22.61;48.20;101960.69;4901241;29;20057;-81
2022/08/27 17:46:12;;;;;;;6.35;2.58;;;;;;;22.64;47.59;101968.50;4901215;29;20055;-81
2022/08/27 17:51:08;;;;;;;5.55;2.63;;;;;;;22.66;47.86;101961.50;4897844;29;20131;-81
2022/08/27 17:56:07;;;;;;;5.47;2.50;;;;;;;22.67;47.35;101970.22;4899431;29;21247;-81
2022/08/27 17:58:33;;;;;;;6.53;2.60;;;;;;;22.64;48.00;101973.75;4886615;29;20058;-81
2022/08/27 18:01:14;;;;;;;9.23;2.83;;;;;;;22.63;47.43;101971.19;4866531;29;20136;-81
2022/08/27 18:03:44;;;;;;;5.95;2.65;;;;;;;22.63;47.76;101977.28;4906484;29;20079;-81
2022/08/27 18:06:10;;;;;;;8.25;3.10;;;;;;;22.61;47.57;101981.69;4914929;29;20120;-81
2022/08/27 18:11:04;;;;;;;6.25;2.58;;;;;;;22.61;48.19;101988.69;4901268;29;20080;-80
2022/08/27 18:13:31;;;;;;;5.75;2.40;;;;;;;22.62;47.59;101985.16;4888035;29;20120;-80
2022/08/27 18:15:57;;;;;;;5.60;2.80;;;;;;;22.59;47.11;101980.84;4884873;29;20393;-80
2022/08/27 18:18:23;;;;;;;6.68;2.92;;;;;;;22.61;47.77;101986.06;4885274;29;20530;-81
2022/08/27 18:20:48;;;;;;;5.70;2.40;;;;;;;22.60;47.89;101987.78;4883271;29;20045;-79
2022/08/27 18:23:22;;;;;;;6.15;2.83;;;;;;;22.60;47.80;101985.16;4905218;29;20048;-81
2022/08/27 18:25:49;;;;;;;4.38;2.28;;;;;;;22.63;47.71;101985.16;4885409;29;20147;-80
2022/08/27 18:28:30;;;;;;;4.65;2.55;;;;;;;22.62;47.08;101985.16;4902650;29;20077;-80
2022/08/27 18:30:57;;;;;;;4.45;2.50;;;;;;;22.61;47.31;101989.56;4897732;29;20041;-80
2022/08/27 18:33:23;;;;;;;5.93;2.90;;;;;;;22.61;47.28;101989.56;4900269;29;20060;-80
2022/08/27 18:35:51;;;;;;;4.78;2.58;;;;;;;22.62;47.68;101988.66;4881811;29;20048;-79
2022/08/27 18:38:17;;;;;;;6.65;2.85;;;;;;;22.64;47.15;101996.50;4899890;29;20052;-79
2022/08/27 18:40:48;;;;;;;6.75;2.88;;;;;;;22.62;46.99;102003.53;4865621;29;20053;-80
2022/08/27 18:43:15;;;;;;;5.63;2.50;;;;;;;22.60;47.82;102011.41;4899373;29;20048;-79
2022/08/27 18:45:41;;;;;;;5.03;2.25;;;;;;;22.58;47.34;102002.69;4881639;29;20403;-79